sensor_id;sensor_type;location;lat;lon;timestamp;P1;durP1;ratioP1;P2;durP2;ratioP2
22711;SDS011;11523;50.390;8.072;2023-01-26T03:35:53;13.50;;;8.63;;
22711;SDS011;11523;50.390;8.072;2023-01-26T03:38:25;13.02;;;8.65;;
22711;SDS011;11523;50.390;8.072;2023-01-26T03:40:55;13.63;;;8.82;;
22711;SDS011;11523;50.390;8.072;2023-01-26T03:43:40;12.70;;;8.55;;
22711;SDS011;11523;50.390;8.072;2023-01-26T03:46:24;13.23;;;8.75;;
22711;SDS011;11523;50.390;8.072;2023-01-26T03:51:54;14.40;;;9.18;;
22711;SDS011;11523;50.390;8.072;2023-01-26T03:54:38;13.20;;;8.52;;
22711;SDS011;11523;50.390;8.072;2023-01-26T03:59:49;15.05;;;8.93;;
22711;SDS011;11523;50.390;8.072;2023-01-26T04:02:15;16.05;;;10.45;;
22711;SDS011;11523;50.390;8.072;2023-01-26T04:04:59;15.05;;;9.35;;
22711;SDS011;11523;50.390;8.072;2023-01-26T04:10:28;16.38;;;9.77;;
22711;SDS011;11523;50.390;8.072;2023-01-26T04:12:54;14.25;;;9.43;;
22711;SDS011;11523;50.390;8.072;2023-01-26T04:18:23;15.82;;;10.02;;
22711;SDS011;11523;50.390;8.072;2023-01-26T04:21:08;18.58;;;10.18;;
22711;SDS011;11523;50.390;8.072;2023-01-26T04:23:53;16.20;;;10.07;;
22711;SDS011;11523;50.390;8.072;2023-01-26T04:26:26;19.95;;;11.30;;
22711;SDS011;11523;50.390;8.072;2023-01-26T04:28:58;19.90;;;11.43;;
22711;SDS011;11523;50.390;8.072;2023-01-26T04:31:24;18.25;;;11.15;;
22711;SDS011;11523;50.390;8.072;2023-01-26T04:33:50;21.42;;;11.85;;
22711;SDS011;11523;50.390;8.072;2023-01-26T04:36:16;17.80;;;11.27;;
22711;SDS011;11523;50.390;8.072;2023-01-26T04:38:42;18.83;;;11.38;;
22711;SDS011;11523;50.390;8.072;2023-01-26T04:41:08;22.58;;;12.07;;
22711;SDS011;11523;50.390;8.072;2023-01-26T04:43:34;22.75;;;12.77;;
22711;SDS011;11523;50.390;8.072;2023-01-26T04:46:04;21.60;;;12.82;;
22711;SDS011;11523;50.390;8.072;2023-01-26T04:48:30;21.02;;;12.75;;
22711;SDS011;11523;50.390;8.072;2023-01-26T04:50:57;22.73;;;12.73;;
22711;SDS011;11523;50.390;8.072;2023-01-26T04:53:23;22.10;;;13.23;;
22711;SDS011;11523;50.390;8.072;2023-01-26T04:55:49;21.63;;;12.20;;
22711;SDS011;11523;50.390;8.072;2023-01-26T04:58:15;21.17;;;12.82;;
22711;SDS011;11523;50.390;8.072;2023-01-26T05:00:41;22.20;;;13.50;;
22711;SDS011;11523;50.390;8.072;2023-01-26T05:03:07;21.67;;;11.48;;
22711;SDS011;11523;50.390;8.072;2023-01-26T05:05:36;21.55;;;12.05;;
22711;SDS011;11523;50.390;8.072;2023-01-26T05:08:03;22.38;;;12.40;;
22711;SDS011;11523;50.390;8.072;2023-01-26T05:10:30;21.90;;;12.30;;
22711;SDS011;11523;50.390;8.072;2023-01-26T05:12:56;21.27;;;11.65;;
22711;SDS011;11523;50.390;8.072;2023-01-26T05:15:21;23.23;;;13.45;;
22711;SDS011;11523;50.390;8.072;2023-01-26T05:17:47;22.65;;;12.90;;
22711;SDS011;11523;50.390;8.072;2023-01-26T05:20:13;23.48;;;13.48;;
22711;SDS011;11523;50.390;8.072;2023-01-26T05:22:39;22.13;;;12.82;;
22711;SDS011;11523;50.390;8.072;2023-01-26T05:25:05;25.77;;;13.57;;
22711;SDS011;11523;50.390;8.072;2023-01-26T05:27:31;22.42;;;13.27;;
22711;SDS011;11523;50.390;8.072;2023-01-26T05:29:57;22.48;;;13.30;;
22711;SDS011;11523;50.390;8.072;2023-01-26T05:32:27;23.13;;;14.57;;
22711;SDS011;11523;50.390;8.072;2023-01-26T05:34:53;27.77;;;13.80;;
22711;SDS011;11523;50.390;8.072;2023-01-26T05:37:19;24.92;;;13.48;;
22711;SDS011;11523;50.390;8.072;2023-01-26T05:39:45;26.48;;;13.90;;
22711;SDS011;11523;50.390;8.072;2023-01-26T05:42:11;26.00;;;14.48;;
22711;SDS011;11523;50.390;8.072;2023-01-26T05:44:37;22.90;;;13.38;;
22711;SDS011;11523;50.390;8.072;2023-01-26T05:47:03;23.58;;;13.27;;
22711;SDS011;11523;50.390;8.072;2023-01-26T05:49:30;22.60;;;13.32;;
22711;SDS011;11523;50.390;8.072;2023-01-26T05:51:56;25.73;;;12.88;;
22711;SDS011;11523;50.390;8.072;2023-01-26T05:54:22;25.45;;;14.02;;
22711;SDS011;11523;50.390;8.072;2023-01-26T05:56:48;26.60;;;14.63;;
22711;SDS011;11523;50.390;8.072;2023-01-26T05:59:14;26.73;;;14.65;;
22711;SDS011;11523;50.390;8.072;2023-01-26T06:01:40;27.17;;;14.02;;
22711;SDS011;11523;50.390;8.072;2023-01-26T06:04:06;24.75;;;14.20;;
22711;SDS011;11523;50.390;8.072;2023-01-26T06:06:32;23.65;;;13.77;;
22711;SDS011;11523;50.390;8.072;2023-01-26T06:08:58;24.73;;;14.50;;
22711;SDS011;11523;50.390;8.072;2023-01-26T06:11:24;26.65;;;14.70;;
22711;SDS011;11523;50.390;8.072;2023-01-26T06:13:50;26.80;;;14.50;;
22711;SDS011;11523;50.390;8.072;2023-01-26T06:16:16;25.90;;;15.15;;
22711;SDS011;11523;50.390;8.072;2023-01-26T06:18:42;26.73;;;15.45;;
22711;SDS011;11523;50.390;8.072;2023-01-26T06:21:08;29.55;;;15.73;;
22711;SDS011;11523;50.390;8.072;2023-01-26T06:23:34;30.63;;;14.45;;
22711;SDS011;11523;50.390;8.072;2023-01-26T06:26:00;29.85;;;15.40;;
22711;SDS011;11523;50.390;8.072;2023-01-26T06:28:27;27.55;;;14.73;;
22711;SDS011;11523;50.390;8.072;2023-01-26T06:30:59;29.52;;;15.80;;
22711;SDS011;11523;50.390;8.072;2023-01-26T06:33:25;30.17;;;14.82;;
22711;SDS011;11523;50.390;8.072;2023-01-26T06:35:51;26.38;;;14.73;;
22711;SDS011;11523;50.390;8.072;2023-01-26T06:38:18;31.40;;;15.52;;
22711;SDS011;11523;50.390;8.072;2023-01-26T06:40:51;22.67;;;11.23;;
22711;SDS011;11523;50.390;8.072;2023-01-26T06:43:17;30.55;;;16.33;;
22711;SDS011;11523;50.390;8.072;2023-01-26T06:45:43;30.92;;;15.45;;
22711;SDS011;11523;50.390;8.072;2023-01-26T06:48:11;32.08;;;15.43;;
22711;SDS011;11523;50.390;8.072;2023-01-26T06:50:36;31.52;;;15.25;;
22711;SDS011;11523;50.390;8.072;2023-01-26T06:53:15;30.42;;;15.50;;
22711;SDS011;11523;50.390;8.072;2023-01-26T06:55:49;28.38;;;15.73;;
22711;SDS011;11523;50.390;8.072;2023-01-26T06:58:16;30.30;;;16.10;;
22711;SDS011;11523;50.390;8.072;2023-01-26T07:00:42;30.33;;;16.08;;
22711;SDS011;11523;50.390;8.072;2023-01-26T07:03:08;31.17;;;15.75;;
22711;SDS011;11523;50.390;8.072;2023-01-26T07:05:35;33.47;;;17.00;;
22711;SDS011;11523;50.390;8.072;2023-01-26T07:08:01;32.58;;;16.73;;
22711;SDS011;11523;50.390;8.072;2023-01-26T07:10:30;31.33;;;15.35;;
22711;SDS011;11523;50.390;8.072;2023-01-26T07:12:56;28.88;;;14.50;;
22711;SDS011;11523;50.390;8.072;2023-01-26T07:15:22;30.23;;;15.15;;
22711;SDS011;11523;50.390;8.072;2023-01-26T07:17:48;31.90;;;16.00;;
22711;SDS011;11523;50.390;8.072;2023-01-26T07:20:14;32.20;;;16.40;;
22711;SDS011;11523;50.390;8.072;2023-01-26T07:22:40;28.10;;;15.55;;
22711;SDS011;11523;50.390;8.072;2023-01-26T07:25:06;27.48;;;15.48;;
22711;SDS011;11523;50.390;8.072;2023-01-26T07:27:32;28.23;;;15.18;;
22711;SDS011;11523;50.390;8.072;2023-01-26T07:29:58;25.27;;;13.73;;
22711;SDS011;11523;50.390;8.072;2023-01-26T07:32:24;25.80;;;13.98;;
22711;SDS011;11523;50.390;8.072;2023-01-26T07:34:49;24.63;;;14.50;;
22711;SDS011;11523;50.390;8.072;2023-01-26T07:37:21;23.63;;;13.65;;
22711;SDS011;11523;50.390;8.072;2023-01-26T07:39:53;27.13;;;13.98;;
22711;SDS011;11523;50.390;8.072;2023-01-26T07:42:19;27.65;;;14.38;;
22711;SDS011;11523;50.390;8.072;2023-01-26T07:44:45;25.20;;;13.57;;
22711;SDS011;11523;50.390;8.072;2023-01-26T07:47:11;26.58;;;14.52;;
22711;SDS011;11523;50.390;8.072;2023-01-26T07:49:38;22.02;;;13.77;;
22711;SDS011;11523;50.390;8.072;2023-01-26T07:52:04;27.02;;;14.48;;
22711;SDS011;11523;50.390;8.072;2023-01-26T07:54:30;27.48;;;13.80;;
22711;SDS011;11523;50.390;8.072;2023-01-26T07:56:56;25.95;;;15.10;;
22711;SDS011;11523;50.390;8.072;2023-01-26T07:59:22;22.63;;;12.82;;
22711;SDS011;11523;50.390;8.072;2023-01-26T08:01:51;22.08;;;13.05;;
22711;SDS011;11523;50.390;8.072;2023-01-26T08:04:17;21.35;;;11.93;;
22711;SDS011;11523;50.390;8.072;2023-01-26T08:06:43;19.90;;;11.63;;
22711;SDS011;11523;50.390;8.072;2023-01-26T08:09:09;19.13;;;11.27;;
22711;SDS011;11523;50.390;8.072;2023-01-26T08:11:35;21.27;;;11.23;;
22711;SDS011;11523;50.390;8.072;2023-01-26T08:14:01;21.17;;;10.93;;
22711;SDS011;11523;50.390;8.072;2023-01-26T08:16:27;19.67;;;11.10;;
22711;SDS011;11523;50.390;8.072;2023-01-26T08:18:53;24.00;;;12.32;;
22711;SDS011;11523;50.390;8.072;2023-01-26T08:21:20;23.05;;;12.38;;
22711;SDS011;11523;50.390;8.072;2023-01-26T08:23:49;21.75;;;12.40;;
22711;SDS011;11523;50.390;8.072;2023-01-26T08:26:16;19.33;;;11.38;;
22711;SDS011;11523;50.390;8.072;2023-01-26T08:28:42;18.15;;;10.48;;
22711;SDS011;11523;50.390;8.072;2023-01-26T08:31:10;17.88;;;10.65;;
22711;SDS011;11523;50.390;8.072;2023-01-26T08:33:37;16.77;;;10.88;;
22711;SDS011;11523;50.390;8.072;2023-01-26T08:36:04;18.70;;;10.57;;
22711;SDS011;11523;50.390;8.072;2023-01-26T08:38:31;17.88;;;10.48;;
22711;SDS011;11523;50.390;8.072;2023-01-26T08:40:57;18.50;;;11.18;;
22711;SDS011;11523;50.390;8.072;2023-01-26T08:43:23;19.42;;;11.15;;
22711;SDS011;11523;50.390;8.072;2023-01-26T08:45:49;17.65;;;10.85;;
22711;SDS011;11523;50.390;8.072;2023-01-26T08:48:15;16.92;;;10.65;;
22711;SDS011;11523;50.390;8.072;2023-01-26T08:50:42;20.70;;;10.75;;
22711;SDS011;11523;50.390;8.072;2023-01-26T08:53:08;17.02;;;9.95;;
22711;SDS011;11523;50.390;8.072;2023-01-26T08:55:34;17.88;;;11.07;;
22711;SDS011;11523;50.390;8.072;2023-01-26T08:58:00;17.77;;;10.73;;
22711;SDS011;11523;50.390;8.072;2023-01-26T09:00:26;16.42;;;10.05;;
22711;SDS011;11523;50.390;8.072;2023-01-26T09:02:58;18.17;;;10.70;;
22711;SDS011;11523;50.390;8.072;2023-01-26T09:05:25;16.20;;;10.18;;
22711;SDS011;11523;50.390;8.072;2023-01-26T09:07:51;15.98;;;9.82;;
22711;SDS011;11523;50.390;8.072;2023-01-26T09:10:17;15.77;;;10.57;;
22711;SDS011;11523;50.390;8.072;2023-01-26T09:12:43;15.98;;;10.57;;
22711;SDS011;11523;50.390;8.072;2023-01-26T09:15:09;18.85;;;11.68;;
22711;SDS011;11523;50.390;8.072;2023-01-26T09:17:35;16.80;;;10.70;;
22711;SDS011;11523;50.390;8.072;2023-01-26T09:20:02;18.15;;;10.77;;
22711;SDS011;11523;50.390;8.072;2023-01-26T09:22:28;16.63;;;10.30;;
22711;SDS011;11523;50.390;8.072;2023-01-26T09:24:54;17.45;;;11.15;;
22711;SDS011;11523;50.390;8.072;2023-01-26T09:27:20;15.05;;;9.45;;
22711;SDS011;11523;50.390;8.072;2023-01-26T09:29:46;17.35;;;10.63;;
22711;SDS011;11523;50.390;8.072;2023-01-26T09:32:12;16.50;;;9.38;;
22711;SDS011;11523;50.390;8.072;2023-01-26T09:34:38;16.15;;;9.77;;
22711;SDS011;11523;50.390;8.072;2023-01-26T09:37:07;15.70;;;9.77;;
22711;SDS011;11523;50.390;8.072;2023-01-26T09:39:33;16.63;;;9.60;;
22711;SDS011;11523;50.390;8.072;2023-01-26T09:44:51;18.25;;;10.05;;
22711;SDS011;11523;50.390;8.072;2023-01-26T09:47:24;15.65;;;9.77;;
22711;SDS011;11523;50.390;8.072;2023-01-26T09:52:20;18.70;;;12.15;;
22711;SDS011;11523;50.390;8.072;2023-01-26T09:54:49;19.92;;;11.82;;
22711;SDS011;11523;50.390;8.072;2023-01-26T09:58:02;17.83;;;10.88;;
22711;SDS011;11523;50.390;8.072;2023-01-26T10:00:05;19.63;;;10.80;;
22711;SDS011;11523;50.390;8.072;2023-01-26T10:02:55;20.60;;;10.95;;
22711;SDS011;11523;50.390;8.072;2023-01-26T10:07:51;20.25;;;11.88;;
22711;SDS011;11523;50.390;8.072;2023-01-26T10:10:25;22.48;;;12.68;;
22711;SDS011;11523;50.390;8.072;2023-01-26T10:12:52;24.55;;;12.80;;
22711;SDS011;11523;50.390;8.072;2023-01-26T10:17:54;26.20;;;13.02;;
22711;SDS011;11523;50.390;8.072;2023-01-26T10:22:51;21.23;;;12.23;;
22711;SDS011;11523;50.390;8.072;2023-01-26T10:25:26;22.38;;;12.80;;
22711;SDS011;11523;50.390;8.072;2023-01-26T10:27:52;21.15;;;12.35;;
22711;SDS011;11523;50.390;8.072;2023-01-26T10:30:19;25.35;;;11.95;;
22711;SDS011;11523;50.390;8.072;2023-01-26T10:32:45;22.08;;;12.80;;
22711;SDS011;11523;50.390;8.072;2023-01-26T10:35:14;25.15;;;12.93;;
22711;SDS011;11523;50.390;8.072;2023-01-26T10:37:41;24.23;;;12.80;;
22711;SDS011;11523;50.390;8.072;2023-01-26T10:40:07;21.23;;;11.55;;
22711;SDS011;11523;50.390;8.072;2023-01-26T10:42:34;20.38;;;12.15;;
22711;SDS011;11523;50.390;8.072;2023-01-26T10:45:01;21.38;;;12.10;;
22711;SDS011;11523;50.390;8.072;2023-01-26T10:47:28;24.02;;;13.73;;
22711;SDS011;11523;50.390;8.072;2023-01-26T10:52:39;23.17;;;13.43;;
22711;SDS011;11523;50.390;8.072;2023-01-26T10:55:20;21.55;;;12.90;;
22711;SDS011;11523;50.390;8.072;2023-01-26T10:57:46;25.80;;;13.00;;
22711;SDS011;11523;50.390;8.072;2023-01-26T11:00:28;23.23;;;13.73;;
22711;SDS011;11523;50.390;8.072;2023-01-26T11:03:13;23.15;;;12.77;;
22711;SDS011;11523;50.390;8.072;2023-01-26T11:05:40;19.77;;;11.75;;
22711;SDS011;11523;50.390;8.072;2023-01-26T11:08:30;20.80;;;12.05;;
22711;SDS011;11523;50.390;8.072;2023-01-26T11:10:55;22.63;;;12.55;;
22711;SDS011;11523;50.390;8.072;2023-01-26T11:13:21;22.10;;;12.05;;
22711;SDS011;11523;50.390;8.072;2023-01-26T11:15:48;20.67;;;13.45;;
22711;SDS011;11523;50.390;8.072;2023-01-26T11:20:59;24.48;;;12.07;;
22711;SDS011;11523;50.390;8.072;2023-01-26T11:26:01;17.75;;;11.38;;
22711;SDS011;11523;50.390;8.072;2023-01-26T11:31:13;18.25;;;10.10;;
22711;SDS011;11523;50.390;8.072;2023-01-26T11:33:45;15.15;;;9.73;;
22711;SDS011;11523;50.390;8.072;2023-01-26T11:41:54;19.75;;;10.90;;
22711;SDS011;11523;50.390;8.072;2023-01-26T11:49:54;16.70;;;10.38;;
22711;SDS011;11523;50.390;8.072;2023-01-26T11:52:25;16.90;;;10.35;;
22711;SDS011;11523;50.390;8.072;2023-01-26T12:00:03;16.90;;;11.27;;
22711;SDS011;11523;50.390;8.072;2023-01-26T12:02:34;17.65;;;10.07;;
22711;SDS011;11523;50.390;8.072;2023-01-26T12:05:02;18.90;;;11.50;;
22711;SDS011;11523;50.390;8.072;2023-01-26T12:07:40;19.95;;;12.02;;
22711;SDS011;11523;50.390;8.072;2023-01-26T12:10:15;20.40;;;11.77;;
22711;SDS011;11523;50.390;8.072;2023-01-26T12:12:43;20.20;;;11.85;;
22711;SDS011;11523;50.390;8.072;2023-01-26T12:15:12;19.50;;;11.43;;
22711;SDS011;11523;50.390;8.072;2023-01-26T12:17:46;17.55;;;10.90;;
22711;SDS011;11523;50.390;8.072;2023-01-26T12:22:59;21.38;;;12.23;;
22711;SDS011;11523;50.390;8.072;2023-01-26T12:25:38;22.63;;;12.88;;
22711;SDS011;11523;50.390;8.072;2023-01-26T12:28:09;22.48;;;12.93;;
22711;SDS011;11523;50.390;8.072;2023-01-26T12:33:15;20.45;;;12.10;;
22711;SDS011;11523;50.390;8.072;2023-01-26T12:41:27;20.90;;;12.60;;
22711;SDS011;11523;50.390;8.072;2023-01-26T12:46:34;27.48;;;13.73;;
22711;SDS011;11523;50.390;8.072;2023-01-26T12:49:05;24.33;;;14.15;;
22711;SDS011;11523;50.390;8.072;2023-01-26T12:51:37;24.52;;;13.85;;
22711;SDS011;11523;50.390;8.072;2023-01-26T12:54:10;25.98;;;15.45;;
22711;SDS011;11523;50.390;8.072;2023-01-26T12:56:42;26.92;;;13.65;;
22711;SDS011;11523;50.390;8.072;2023-01-26T12:59:14;21.63;;;13.65;;
22711;SDS011;11523;50.390;8.072;2023-01-26T13:01:42;27.02;;;15.07;;
22711;SDS011;11523;50.390;8.072;2023-01-26T13:04:09;30.38;;;15.30;;
22711;SDS011;11523;50.390;8.072;2023-01-26T13:06:36;24.88;;;14.80;;
22711;SDS011;11523;50.390;8.072;2023-01-26T13:09:23;26.08;;;13.55;;
22711;SDS011;11523;50.390;8.072;2023-01-26T13:11:49;27.85;;;14.40;;
22711;SDS011;11523;50.390;8.072;2023-01-26T13:16:53;27.25;;;14.63;;
22711;SDS011;11523;50.390;8.072;2023-01-26T13:19:35;28.45;;;15.10;;
22711;SDS011;11523;50.390;8.072;2023-01-26T13:22:11;27.60;;;14.50;;
22711;SDS011;11523;50.390;8.072;2023-01-26T13:24:56;26.67;;;14.43;;
22711;SDS011;11523;50.390;8.072;2023-01-26T13:29:58;28.10;;;16.10;;
22711;SDS011;11523;50.390;8.072;2023-01-26T13:34:57;28.38;;;15.32;;
22711;SDS011;11523;50.390;8.072;2023-01-26T13:42:50;27.90;;;15.68;;
22711;SDS011;11523;50.390;8.072;2023-01-26T13:45:21;29.08;;;16.45;;
22711;SDS011;11523;50.390;8.072;2023-01-26T13:47:49;32.65;;;16.58;;
22711;SDS011;11523;50.390;8.072;2023-01-26T13:50:33;28.77;;;15.95;;
22711;SDS011;11523;50.390;8.072;2023-01-26T13:55:30;30.30;;;15.70;;
22711;SDS011;11523;50.390;8.072;2023-01-26T13:58:12;32.53;;;16.25;;
22711;SDS011;11523;50.390;8.072;2023-01-26T14:00:38;30.00;;;17.02;;
22711;SDS011;11523;50.390;8.072;2023-01-26T14:03:04;32.33;;;16.58;;
22711;SDS011;11523;50.390;8.072;2023-01-26T14:05:30;32.75;;;16.85;;
22711;SDS011;11523;50.390;8.072;2023-01-26T14:07:58;30.58;;;15.65;;
22711;SDS011;11523;50.390;8.072;2023-01-26T14:10:24;31.02;;;17.05;;
22711;SDS011;11523;50.390;8.072;2023-01-26T14:12:52;32.60;;;17.75;;
22711;SDS011;11523;50.390;8.072;2023-01-26T14:15:26;31.05;;;16.75;;
22711;SDS011;11523;50.390;8.072;2023-01-26T14:17:56;34.97;;;17.15;;
22711;SDS011;11523;50.390;8.072;2023-01-26T14:20:24;32.78;;;16.40;;
22711;SDS011;11523;50.390;8.072;2023-01-26T14:25:34;31.20;;;17.38;;
22711;SDS011;11523;50.390;8.072;2023-01-26T14:28:00;31.58;;;18.17;;
22711;SDS011;11523;50.390;8.072;2023-01-26T14:30:27;33.50;;;18.10;;
22711;SDS011;11523;50.390;8.072;2023-01-26T14:33:15;29.20;;;17.35;;
22711;SDS011;11523;50.390;8.072;2023-01-26T14:35:40;37.55;;;19.27;;
22711;SDS011;11523;50.390;8.072;2023-01-26T14:40:42;33.75;;;17.23;;
22711;SDS011;11523;50.390;8.072;2023-01-26T14:43:08;34.17;;;18.33;;
22711;SDS011;11523;50.390;8.072;2023-01-26T14:45:35;30.75;;;18.15;;
22711;SDS011;11523;50.390;8.072;2023-01-26T14:48:04;29.50;;;17.55;;
22711;SDS011;11523;50.390;8.072;2023-01-26T14:50:31;31.92;;;17.85;;
22711;SDS011;11523;50.390;8.072;2023-01-26T14:52:59;28.58;;;15.63;;
22711;SDS011;11523;50.390;8.072;2023-01-26T14:55:26;29.58;;;16.35;;
22711;SDS011;11523;50.390;8.072;2023-01-26T14:57:53;34.03;;;17.75;;
22711;SDS011;11523;50.390;8.072;2023-01-26T15:00:24;34.15;;;17.88;;
22711;SDS011;11523;50.390;8.072;2023-01-26T15:02:51;31.15;;;17.65;;
22711;SDS011;11523;50.390;8.072;2023-01-26T15:05:19;33.35;;;18.00;;
22711;SDS011;11523;50.390;8.072;2023-01-26T15:07:48;31.30;;;17.58;;
22711;SDS011;11523;50.390;8.072;2023-01-26T15:10:35;30.38;;;17.08;;
22711;SDS011;11523;50.390;8.072;2023-01-26T15:15:40;32.20;;;17.45;;
22711;SDS011;11523;50.390;8.072;2023-01-26T15:23:18;30.77;;;16.73;;
22711;SDS011;11523;50.390;8.072;2023-01-26T15:25:44;33.95;;;17.40;;
22711;SDS011;11523;50.390;8.072;2023-01-26T15:28:11;31.67;;;18.42;;
22711;SDS011;11523;50.390;8.072;2023-01-26T15:30:44;32.35;;;18.58;;
22711;SDS011;11523;50.390;8.072;2023-01-26T15:35:56;32.72;;;17.13;;
22711;SDS011;11523;50.390;8.072;2023-01-26T15:38:22;35.25;;;18.73;;
22711;SDS011;11523;50.390;8.072;2023-01-26T15:40:48;33.90;;;18.55;;
22711;SDS011;11523;50.390;8.072;2023-01-26T15:43:15;31.67;;;18.27;;
22711;SDS011;11523;50.390;8.072;2023-01-26T15:48:13;36.22;;;20.15;;
22711;SDS011;11523;50.390;8.072;2023-01-26T15:50:38;33.33;;;18.73;;
22711;SDS011;11523;50.390;8.072;2023-01-26T15:53:04;31.85;;;17.35;;
22711;SDS011;11523;50.390;8.072;2023-01-26T15:55:31;35.45;;;19.13;;
22711;SDS011;11523;50.390;8.072;2023-01-26T15:57:57;34.40;;;17.65;;
22711;SDS011;11523;50.390;8.072;2023-01-26T16:00:24;40.22;;;19.73;;
22711;SDS011;11523;50.390;8.072;2023-01-26T16:02:50;39.63;;;19.23;;
22711;SDS011;11523;50.390;8.072;2023-01-26T16:05:17;35.08;;;18.98;;
22711;SDS011;11523;50.390;8.072;2023-01-26T16:07:43;37.35;;;19.30;;
22711;SDS011;11523;50.390;8.072;2023-01-26T16:10:09;35.42;;;18.83;;
22711;SDS011;11523;50.390;8.072;2023-01-26T16:12:35;31.88;;;17.73;;
22711;SDS011;11523;50.390;8.072;2023-01-26T16:15:01;34.00;;;19.55;;
22711;SDS011;11523;50.390;8.072;2023-01-26T16:17:28;38.13;;;19.48;;
22711;SDS011;11523;50.390;8.072;2023-01-26T16:19:53;34.03;;;18.63;;
22711;SDS011;11523;50.390;8.072;2023-01-26T16:22:19;35.25;;;19.55;;
22711;SDS011;11523;50.390;8.072;2023-01-26T16:24:45;33.47;;;18.60;;
22711;SDS011;11523;50.390;8.072;2023-01-26T16:27:11;37.25;;;20.08;;
22711;SDS011;11523;50.390;8.072;2023-01-26T16:29:37;34.97;;;18.27;;
22711;SDS011;11523;50.390;8.072;2023-01-26T16:32:07;34.10;;;20.20;;
22711;SDS011;11523;50.390;8.072;2023-01-26T16:34:39;33.85;;;19.08;;
22711;SDS011;11523;50.390;8.072;2023-01-26T16:37:05;36.78;;;20.35;;
22711;SDS011;11523;50.390;8.072;2023-01-26T16:39:31;41.15;;;19.92;;
22711;SDS011;11523;50.390;8.072;2023-01-26T16:41:57;36.63;;;19.20;;
22711;SDS011;11523;50.390;8.072;2023-01-26T16:44:22;37.03;;;20.67;;
22711;SDS011;11523;50.390;8.072;2023-01-26T16:46:48;39.97;;;20.65;;
22711;SDS011;11523;50.390;8.072;2023-01-26T16:49:14;36.53;;;20.73;;
22711;SDS011;11523;50.390;8.072;2023-01-26T16:51:41;39.47;;;20.45;;
22711;SDS011;11523;50.390;8.072;2023-01-26T16:54:08;36.33;;;19.73;;
22711;SDS011;11523;50.390;8.072;2023-01-26T16:56:34;35.40;;;19.98;;
22711;SDS011;11523;50.390;8.072;2023-01-26T16:58:59;41.65;;;20.83;;
22711;SDS011;11523;50.390;8.072;2023-01-26T17:01:27;49.42;;;24.38;;
22711;SDS011;11523;50.390;8.072;2023-01-26T17:03:53;49.05;;;24.55;;
22711;SDS011;11523;50.390;8.072;2023-01-26T17:06:20;48.28;;;23.73;;
22711;SDS011;11523;50.390;8.072;2023-01-26T17:08:46;46.72;;;25.40;;
22711;SDS011;11523;50.390;8.072;2023-01-26T17:11:19;42.65;;;22.83;;
22711;SDS011;11523;50.390;8.072;2023-01-26T17:13:45;41.53;;;22.35;;
22711;SDS011;11523;50.390;8.072;2023-01-26T17:16:16;40.83;;;21.10;;
22711;SDS011;11523;50.390;8.072;2023-01-26T17:18:42;40.80;;;21.40;;
22711;SDS011;11523;50.390;8.072;2023-01-26T17:21:12;40.88;;;22.10;;
22711;SDS011;11523;50.390;8.072;2023-01-26T17:23:38;41.35;;;20.60;;
22711;SDS011;11523;50.390;8.072;2023-01-26T17:26:08;36.20;;;19.95;;
22711;SDS011;11523;50.390;8.072;2023-01-26T17:28:35;44.15;;;21.35;;
22711;SDS011;11523;50.390;8.072;2023-01-26T17:31:05;39.60;;;21.48;;
22711;SDS011;11523;50.390;8.072;2023-01-26T17:33:31;42.08;;;20.85;;
22711;SDS011;11523;50.390;8.072;2023-01-26T17:35:57;40.17;;;20.65;;
22711;SDS011;11523;50.390;8.072;2023-01-26T17:38:24;41.00;;;19.77;;
22711;SDS011;11523;50.390;8.072;2023-01-26T17:40:53;38.03;;;20.58;;
22711;SDS011;11523;50.390;8.072;2023-01-26T17:43:19;37.83;;;20.40;;
22711;SDS011;11523;50.390;8.072;2023-01-26T17:45:45;33.67;;;18.05;;
22711;SDS011;11523;50.390;8.072;2023-01-26T17:48:11;34.42;;;18.80;;
22711;SDS011;11523;50.390;8.072;2023-01-26T17:50:38;36.78;;;19.23;;
22711;SDS011;11523;50.390;8.072;2023-01-26T17:53:04;35.38;;;19.05;;
22711;SDS011;11523;50.390;8.072;2023-01-26T17:55:30;33.08;;;18.33;;
22711;SDS011;11523;50.390;8.072;2023-01-26T17:57:56;37.35;;;18.42;;
22711;SDS011;11523;50.390;8.072;2023-01-26T18:00:22;32.20;;;18.67;;
22711;SDS011;11523;50.390;8.072;2023-01-26T18:02:48;36.60;;;19.65;;
22711;SDS011;11523;50.390;8.072;2023-01-26T18:05:14;35.17;;;18.23;;
22711;SDS011;11523;50.390;8.072;2023-01-26T18:07:40;37.55;;;18.52;;
22711;SDS011;11523;50.390;8.072;2023-01-26T18:10:06;35.70;;;19.45;;
22711;SDS011;11523;50.390;8.072;2023-01-26T18:12:32;32.83;;;17.80;;
22711;SDS011;11523;50.390;8.072;2023-01-26T18:14:59;35.28;;;19.17;;
22711;SDS011;11523;50.390;8.072;2023-01-26T18:17:25;31.92;;;19.02;;
22711;SDS011;11523;50.390;8.072;2023-01-26T18:19:51;33.45;;;18.40;;
22711;SDS011;11523;50.390;8.072;2023-01-26T18:22:17;35.05;;;18.05;;
22711;SDS011;11523;50.390;8.072;2023-01-26T18:24:43;32.55;;;19.25;;
22711;SDS011;11523;50.390;8.072;2023-01-26T18:27:09;33.30;;;18.58;;
22711;SDS011;11523;50.390;8.072;2023-01-26T18:29:35;42.55;;;23.30;;
22711;SDS011;11523;50.390;8.072;2023-01-26T18:32:01;33.05;;;17.98;;
22711;SDS011;11523;50.390;8.072;2023-01-26T18:34:28;32.65;;;18.65;;
22711;SDS011;11523;50.390;8.072;2023-01-26T18:36:54;34.00;;;16.80;;
22711;SDS011;11523;50.390;8.072;2023-01-26T18:39:20;31.55;;;18.13;;
22711;SDS011;11523;50.390;8.072;2023-01-26T18:41:46;27.85;;;16.65;;
22711;SDS011;11523;50.390;8.072;2023-01-26T18:44:12;26.48;;;16.52;;
22711;SDS011;11523;50.390;8.072;2023-01-26T18:46:38;27.80;;;16.92;;
22711;SDS011;11523;50.390;8.072;2023-01-26T18:49:04;30.25;;;16.58;;
22711;SDS011;11523;50.390;8.072;2023-01-26T18:51:31;25.15;;;15.57;;
22711;SDS011;11523;50.390;8.072;2023-01-26T18:53:57;24.63;;;14.20;;
22711;SDS011;11523;50.390;8.072;2023-01-26T18:56:23;24.67;;;14.25;;
22711;SDS011;11523;50.390;8.072;2023-01-26T18:58:52;28.60;;;15.15;;
22711;SDS011;11523;50.390;8.072;2023-01-26T19:01:18;22.85;;;13.57;;
22711;SDS011;11523;50.390;8.072;2023-01-26T19:03:45;24.90;;;14.38;;
22711;SDS011;11523;50.390;8.072;2023-01-26T19:06:17;24.60;;;13.65;;
22711;SDS011;11523;50.390;8.072;2023-01-26T19:08:44;22.27;;;13.30;;
22711;SDS011;11523;50.390;8.072;2023-01-26T19:11:10;21.75;;;12.75;;
22711;SDS011;11523;50.390;8.072;2023-01-26T19:13:36;20.45;;;12.95;;
22711;SDS011;11523;50.390;8.072;2023-01-26T19:16:06;24.85;;;13.57;;
22711;SDS011;11523;50.390;8.072;2023-01-26T19:18:32;25.08;;;14.40;;
22711;SDS011;11523;50.390;8.072;2023-01-26T19:21:01;21.08;;;13.05;;
22711;SDS011;11523;50.390;8.072;2023-01-26T19:23:28;21.80;;;13.15;;
22711;SDS011;11523;50.390;8.072;2023-01-26T19:26:08;22.67;;;13.48;;
22711;SDS011;11523;50.390;8.072;2023-01-26T19:28:35;21.85;;;13.02;;
22711;SDS011;11523;50.390;8.072;2023-01-26T19:31:04;19.45;;;12.52;;
22711;SDS011;11523;50.390;8.072;2023-01-26T19:33:30;20.85;;;12.57;;
22711;SDS011;11523;50.390;8.072;2023-01-26T19:35:56;19.20;;;12.38;;
22711;SDS011;11523;50.390;8.072;2023-01-26T19:38:24;26.35;;;13.13;;
22711;SDS011;11523;50.390;8.072;2023-01-26T19:40:50;21.85;;;13.10;;
22711;SDS011;11523;50.390;8.072;2023-01-26T19:43:16;23.30;;;13.75;;